Latest Weather Observations for Mandurah

IDW60801

Issued at 6:05 pm WST Tuesday 30 September 2014 (issued every 30 minutes, with the page automatically refreshed every 10 minutes)

About weather observations | Map of weather stations | Latest weather observations for WA | Other Formats
Station Details ID: 009977 Name: MANDURAH Lat: -32.52 Lon: 115.71 Height: 3.0 m
Data from the previous 72 hours. | See also: Recent months at Mandurah
Date/Time
WST
Temp
°C
App
Temp
°C
Dew
Point
Rel
Hum
%
Delta-T
°C
Wind Press
QNH
hPa
Press
MSL
hPa
Rain
since 9 am
mm
Dir
 
Spd
km/h
Gust
km/h
Spd
kts
Gust
kts
30/06:00pm 19.5 18.3 12.8 65 3.8 S 11 19 6 10 1020.7 1020.7 0.2
30/05:30pm 19.8 17.7 12.3 62 4.2 SSW 15 20 8 11 1020.6 1020.6 0.2
30/05:00pm 20.4 18.1 11.6 57 4.9 SSW 15 22 8 12 1020.7 1020.7 0.2
30/04:30pm 20.2 17.1 11.7 58 4.7 SW 19 26 10 14 1020.6 1020.6 0.2
30/04:00pm 20.1 17.0 12.1 60 4.4 SW 20 28 11 15 1020.7 1020.7 0.2
30/03:30pm 20.2 16.8 12.4 61 4.4 WSW 22 32 12 17 1020.6 1020.6 0.2
30/03:00pm 20.1 16.9 11.8 59 4.6 SW 20 28 11 15 1020.6 1020.6 0.0
30/02:30pm 20.3 17.0 11.5 57 4.9 SW 20 28 11 15 1020.8 1020.8 0.0
30/02:00pm 21.4 19.4 10.3 49 6.0 S 11 15 6 8 1021.1 1021.1 0.0
30/01:30pm 21.0 19.0 10.2 50 5.8 S 11 17 6 9 1021.4 1021.4 0.0
30/01:00pm 20.4 18.7 9.9 51 5.6 S 9 13 5 7 1021.9 1021.9 0.0
30/12:30pm 19.9 18.5 9.5 51 5.5 S 7 11 4 6 1022.4 1022.4 0.0
30/12:00pm 20.5 19.6 10.6 53 5.4 S 6 9 3 5 1022.8 1022.8 0.0
30/11:30am 19.3 17.8 9.2 52 5.3 SSE 7 15 4 8 1023.1 1023.1 0.0
30/11:00am 20.0 18.5 9.0 49 5.8 ENE 7 15 4 8 1023.3 1023.3 0.0
30/10:30am 18.2 16.6 8.7 54 4.9 SE 7 15 4 8 1023.5 1023.5 0.0
30/10:00am 17.8 16.4 9.4 58 4.4 SE 7 11 4 6 1023.6 1023.6 0.0
30/09:30am 17.2 14.8 8.6 57 4.4 SE 11 19 6 10 1023.7 1023.7 0.0
30/09:00am 17.4 14.6 8.5 56 4.5 E 13 19 7 10 1023.8 1023.8 0.4
30/08:30am 15.9 13.1 8.4 61 3.8 SE 13 20 7 11 1023.6 1023.6 0.4
30/08:00am 15.8 13.4 8.5 62 3.7 ESE 11 15 6 8 1023.6 1023.6 0.4
30/07:30am 15.3 12.6 8.8 65 3.3 ESE 13 17 7 9 1023.4 1023.4 0.4
30/07:00am 15.0 12.3 9.1 68 3.0 ESE 13 19 7 10 1023.0 1023.0 0.4
30/06:30am 14.8 13.0 9.4 70 2.8 SE 9 15 5 8 1022.7 1022.7 0.4
30/06:00am 14.5 12.9 10.1 75 2.3 ESE 9 13 5 7 1022.3 1022.3 0.4
30/05:30am 14.5 13.4 10.5 77 2.1 SE 7 13 4 7 1022.1 1022.1 0.4
30/05:00am 14.7 13.6 10.5 76 2.2 ESE 7 11 4 6 1021.9 1021.9 0.4
30/04:30am 14.8 13.2 10.2 74 2.4 SSE 9 15 5 8 1021.6 1021.6 0.4
30/04:00am 14.9 13.7 10.3 74 2.4 SE 7 13 4 7 1021.3 1021.3 0.4
30/03:30am 15.2 12.9 10.4 73 2.5 SSE 13 20 7 11 1021.3 1021.3 0.4
30/03:00am 15.4 14.3 10.8 74 2.4 SE 7 11 4 6 1020.9 1020.9 0.4
30/02:30am 15.5 14.0 10.5 72 2.6 SSE 9 13 5 7 1020.7 1020.7 0.4
30/02:00am 15.5 14.2 9.8 69 3.0 SSE 7 11 4 6 1020.6 1020.6 0.4
30/01:30am 16.4 15.1 9.1 62 3.8 S 6 7 3 4 1020.5 1020.5 0.4
30/01:00am 16.1 14.8 9.3 64 3.5 S 6 7 3 4 1020.5 1020.5 0.4
30/12:30am 16.4 15.5 9.3 63 3.7 S 4 7 2 4 1020.7 1020.7 0.4
30/12:00am 16.4 15.4 8.9 61 3.8 S 4 7 2 4 1020.8 1020.8 0.4
 
Date/Time
WST
Temp
°C
App
Temp
°C
Dew
Point
Rel
Hum
%
Delta-T
°C
Wind Press
QNH
hPa
Press
MSL
hPa
Rain
since 9 am
mm
Dir
 
Spd
km/h
Gust
km/h
Spd
kts
Gust
kts
29/11:30pm 16.3 14.6 8.3 59 4.1 SSW 7 13 4 7 1020.9 1020.9 0.4
29/11:00pm 15.9 14.4 9.1 64 3.5 SSW 7 11 4 6 1020.9 1020.9 0.4
29/10:30pm 16.1 14.5 8.6 61 3.8 SSW 7 9 4 5 1020.9 1020.9 0.2
29/10:00pm 16.8 15.6 9.5 62 3.8 S 6 9 3 5 1021.1 1021.1 0.2
29/09:30pm 16.7 15.3 9.4 62 3.8 SSW 7 9 4 5 1021.3 1021.3 0.2
29/09:00pm 16.7 14.9 9.4 62 3.8 SSW 9 19 5 10 1021.4 1021.4 0.2
29/08:30pm 16.7 14.7 8.7 59 4.1 SSW 9 15 5 8 1021.0 1021.0 0.2
29/08:00pm 17.0 15.0 8.7 58 4.2 SSW 9 15 5 8 1020.7 1020.7 0.2
29/07:30pm 17.2 14.7 9.6 61 4.0 SW 13 19 7 10 1020.4 1020.4 0.2
29/07:00pm 17.2 14.8 10.1 63 3.7 SSW 13 19 7 10 1019.8 1019.8 0.2
29/06:30pm 17.0 15.5 10.6 66 3.4 SSW 9 15 5 8 1019.3 1019.3 0.2
29/06:00pm 17.3 15.1 10.7 65 3.5 SSW 13 19 7 10 1019.2 1019.2 0.2
29/05:30pm 17.6 14.9 10.2 62 3.9 SW 15 22 8 12 1018.9 1018.9 0.2
29/05:00pm 17.9 14.9 10.8 63 3.8 SW 17 26 9 14 1018.6 1018.6 0.2
29/04:30pm 18.2 15.8 11.3 64 3.8 SSW 15 22 8 12 1018.2 1018.2 0.2
29/04:00pm 18.3 15.4 10.9 62 4.0 SW 17 24 9 13 1018.0 1018.0 0.2
29/03:30pm 17.9 15.1 11.2 65 3.6 SW 17 26 9 14 1017.9 1017.9 0.2
29/03:00pm 18.9 15.8 11.7 63 4.0 WSW 19 26 10 14 1017.7 1017.7 0.2
29/02:30pm 19.4 16.2 11.4 60 4.4 SW 19 28 10 15 1017.5 1017.5 0.2
29/02:00pm 19.2 16.4 12.7 66 3.6 WSW 19 24 10 13 1017.4 1017.4 0.2
29/01:30pm 19.3 18.4 12.6 65 3.8 WSW 9 15 5 8 1017.1 1017.1 0.2
29/01:00pm 18.7 16.4 12.9 69 3.3 WSW 17 24 9 13 1017.5 1017.5 0.2
29/12:30pm 18.9 17.0 13.1 69 3.3 SW 15 24 8 13 1017.6 1017.6 0.2
29/12:00pm 17.5 15.5 13.8 79 2.1 WSW 17 28 9 15 1017.8 1017.8 0.2
29/11:30am 18.3 17.0 13.8 75 2.6 SW 13 22 7 12 1017.6 1017.6 0.2
29/11:00am 17.3 15.4 14.2 82 1.8 SW 17 30 9 16 1017.8 1017.8 0.0
29/10:30am 17.3 16.5 16.0 92 0.8 SW 15 22 8 12 1017.7 1017.7 0.0
29/10:00am 16.4 13.7 14.6 89 1.0 WSW 22 30 12 16 1017.6 1017.6 0.0
29/09:30am 18.2 16.1 13.5 74 2.7 WSW 17 24 9 13 1017.3 1017.3 0.0
29/09:00am 18.7 17.0 14.8 78 2.3 WSW 17 33 9 18 1017.1 1017.1 1.0
29/08:30am 18.3 16.9 14.6 79 2.1 SW 15 24 8 13 1016.8 1016.8 1.0
29/08:00am 18.0 15.6 12.7 71 3.0 W 17 24 9 13 1016.4 1016.4 1.0
29/07:30am 17.5 15.5 12.6 73 2.7 W 15 22 8 12 1016.1 1016.1 1.0
29/07:00am 17.2 15.5 13.5 79 2.1 W 15 20 8 11 1015.6 1015.6 1.0
29/06:30am 16.3 15.1 12.8 80 1.9 W 11 17 6 9 1015.4 1015.4 1.0
29/06:00am 16.2 14.5 13.5 84 1.5 WSW 15 22 8 12 1015.2 1015.2 0.8
29/05:30am 16.5 15.9 14.5 88 1.1 WSW 11 17 6 9 1015.0 1015.0 0.8
29/05:00am 16.3 16.7 15.2 93 0.6 W 7 13 4 7 1014.7 1014.7 0.8
29/04:30am 15.7 16.3 15.2 97 0.3 WSW 6 13 3 7 1014.5 1014.5 0.8
29/04:00am 15.7 16.2 15.1 96 0.3 SW 6 9 3 5 1014.7 1014.7 0.8
29/03:30am 16.3 14.2 14.8 91 0.9 WSW 19 32 10 17 1014.8 1014.8 0.8
29/03:00am 15.9 15.2 14.3 90 0.9 WSW 11 19 6 10 1014.9 1014.9 0.8
29/02:30am 16.5 14.2 14.7 89 1.0 W 20 32 11 17 1015.1 1015.1 0.8
29/02:00am 16.5 13.5 14.9 90 0.9 WNW 24 32 13 17 1015.1 1015.1 0.8
29/01:30am 16.1 12.6 14.6 91 0.9 W 26 41 14 22 1015.3 1015.3 0.8
29/01:00am 16.5 12.8 15.0 91 0.9 W 28 37 15 20 1015.5 1015.5 0.8
29/12:30am 16.4 14.7 14.8 90 0.9 W 17 20 9 11 1015.5 1015.5 0.8
29/12:00am 16.5 14.0 14.0 85 1.4 W 20 30 11 16 1015.8 1015.8 0.8
 
Date/Time
WST
Temp
°C
App
Temp
°C
Dew
Point
Rel
Hum
%
Delta-T
°C
Wind Press
QNH
hPa
Press
MSL
hPa
Rain
since 9 am
mm
Dir
 
Spd
km/h
Gust
km/h
Spd
kts
Gust
kts
28/11:30pm 17.3 13.6 12.6 74 2.6 W 24 30 13 16 1015.8 1015.8 0.8
28/11:00pm 17.3 13.8 13.4 78 2.2 WNW 24 30 13 16 1015.9 1015.9 0.8
28/10:30pm 17.2 13.6 12.9 76 2.4 WNW 24 30 13 16 1016.0 1016.0 0.6
28/10:00pm 17.4 13.7 12.7 74 2.6 WNW 24 32 13 17 1016.2 1016.2 0.6
28/09:30pm 17.4 14.0 12.5 73 2.7 WNW 22 28 12 15 1016.5 1016.5 0.6
28/09:00pm 17.4 13.6 12.5 73 2.7 WNW 24 30 13 16 1016.7 1016.7 0.6
28/08:30pm 17.3 13.9 12.6 74 2.6 WNW 22 28 12 15 1016.8 1016.8 0.6
28/08:00pm 17.4 13.5 13.3 77 2.3 NW 26 33 14 18 1016.6 1016.6 0.6
28/07:30pm 17.4 13.6 12.5 73 2.7 WNW 24 32 13 17 1016.5 1016.5 0.6
28/07:00pm 17.3 14.0 12.8 75 2.5 WNW 22 26 12 14 1016.3 1016.3 0.6
28/06:30pm 17.3 13.5 12.4 73 2.7 WNW 24 30 13 16 1016.2 1016.2 0.6
28/06:00pm 16.8 14.2 13.1 79 2.1 NW 19 24 10 13 1016.2 1016.2 0.4
28/05:30pm 17.2 14.6 13.1 77 2.3 WNW 19 24 10 13 1016.1 1016.1 0.4
28/05:00pm 17.1 14.4 12.8 76 2.4 WNW 19 22 10 12 1016.1 1016.1 0.4
28/04:30pm 17.3 13.6 12.6 74 2.6 NW 24 30 13 16 1016.1 1016.1 0.4
28/04:00pm 17.7 13.7 13.0 74 2.6 WNW 26 32 14 17 1016.0 1016.0 0.4
28/03:30pm 17.0 14.1 12.9 77 2.3 WNW 20 28 11 15 1015.9 1015.9 0.4
28/03:00pm 17.1 15.6 15.4 90 1.0 W 17 22 9 12 1016.1 1016.1 0.4
28/02:30pm 17.0 14.9 13.5 80 2.0 W 17 30 9 16 1016.1 1016.1 0.4
28/02:00pm 17.7 15.8 11.9 69 3.2 WNW 13 19 7 10 1016.0 1016.0 0.4
28/01:30pm 16.2 10.6 13.3 83 1.6 WNW 35 44 19 24 1016.2 1016.2 0.4
28/01:00pm 18.1 13.9 13.4 74 2.7 W 28 39 15 21 1016.3 1016.3 0.2
28/12:30pm 18.1 16.4 14.6 80 2.0 W 17 22 9 12 1016.2 1016.2 0.2
28/12:00pm 17.2 15.3 13.1 77 2.3 W 15 20 8 11 1016.2 1016.2 0.0
28/11:30am 15.8 13.0 14.2 90 0.9 W 22 35 12 19 1016.4 1016.4 0.0
28/11:19am 16.2 11.9 13.1 82 1.7 W 28 43 15 23 1016.5 1016.5 0.0
28/11:00am 18.3 16.5 13.4 73 2.8 WSW 15 20 8 11 1016.2 1016.2 0.0
28/10:30am 16.6 14.1 13.5 82 1.7 W 19 33 10 18 1016.4 1016.4 0.0
28/10:00am 16.2 14.0 14.4 89 1.0 WSW 19 28 10 15 1016.3 1016.3 0.0
28/09:30am 15.3 12.2 13.5 89 1.0 W 22 33 12 18 1016.1 1016.1 0.0
28/09:00am 16.6 11.6 13.5 82 1.7 WNW 32 39 17 21 1015.9 1015.9 0.6
28/08:30am 16.2 11.3 12.7 80 1.9 WNW 30 37 16 20 1015.7 1015.7 0.6
28/08:00am 16.1 11.1 12.3 78 2.1 W 30 41 16 22 1015.5 1015.5 0.6
28/07:31am 15.7 11.3 12.8 83 1.6 W 28 48 15 26 1015.4 1015.4 0.4
28/07:30am 15.9 11.8 12.8 82 1.7 W 26 48 14 26 1015.3 1015.3 0.4
28/07:00am 15.7 12.3 12.5 81 1.8 W 22 37 12 20 1015.0 1015.0 0.4
28/06:30am 15.8 10.8 12.2 79 2.0 W 30 41 16 22 1014.9 1014.9 0.4
28/06:00am 15.2 12.5 11.8 80 1.8 W 17 24 9 13 1014.5 1014.5 0.4
28/05:30am 16.1 11.1 10.8 71 2.8 W 28 41 15 22 1014.3 1014.3 0.4
28/05:00am 15.9 11.3 11.1 73 2.6 WNW 26 33 14 18 1014.0 1014.0 0.4
28/04:30am 15.5 10.8 10.5 72 2.6 W 26 41 14 22 1013.8 1013.8 0.4
28/04:00am 16.1 11.2 9.8 66 3.3 W 26 39 14 21 1013.7 1013.7 0.4
28/03:30am 16.2 10.1 9.8 66 3.3 W 32 44 17 24 1013.7 1013.7 0.4
28/03:00am 16.3 10.6 9.7 65 3.4 W 30 43 16 23 1013.6 1013.6 0.4
28/02:30am 16.5 10.1 8.7 60 4.0 W 32 46 17 25 1013.7 1013.7 0.4
28/02:00am 16.6 10.4 9.5 63 3.7 W 32 46 17 25 1013.7 1013.7 0.4
28/01:30am 16.5 10.3 9.4 63 3.7 W 32 43 17 23 1013.7 1013.7 0.4
28/01:00am 15.4 9.3 11.8 79 1.9 WNW 35 46 19 25 1013.8 1013.8 0.4
28/12:30am 16.7 11.7 10.8 68 3.2 W 28 37 15 20 1013.6 1013.6 0.4
28/12:00am 16.2 11.4 8.9 62 3.7 W 24 43 13 23 1013.9 1013.9 0.4
 
Date/Time
WST
Temp
°C
App
Temp
°C
Dew
Point
Rel
Hum
%
Delta-T
°C
Wind Press
QNH
hPa
Press
MSL
hPa
Rain
since 9 am
mm
Dir
 
Spd
km/h
Gust
km/h
Spd
kts
Gust
kts
27/11:30pm 16.1 10.7 8.1 59 4.0 W 26 41 14 22 1013.9 1013.9 0.4
27/11:16pm 16.1 10.6 9.3 64 3.5 W 28 50 15 27 1013.9 1013.9 0.4
27/11:00pm 16.4 11.5 8.6 60 4.0 W 24 35 13 19 1013.9 1013.9 0.4
27/10:30pm 15.4 11.1 9.3 67 3.1 W 22 39 12 21 1013.9 1013.9 0.4
27/10:03pm 15.8 10.5 9.7 67 3.2 W 28 48 15 26 1013.9 1013.9 0.4
27/10:00pm 15.8 11.6 9.7 67 3.2 WSW 22 44 12 24 1013.9 1013.9 0.4
27/09:30pm 16.2 10.9 8.4 60 4.0 W 26 33 14 18 1013.7 1013.7 0.4
27/09:00pm 15.8 11.6 8.3 61 3.8 W 20 32 11 17 1013.6 1013.6 0.2
27/08:30pm 15.6 11.5 8.8 64 3.5 WSW 20 32 11 17 1013.4 1013.4 0.2
27/08:00pm 15.8 10.6 7.3 57 4.2 W 24 41 13 22 1013.0 1013.0 0.2
27/07:30pm 15.3 10.0 8.3 63 3.5 W 26 43 14 23 1013.0 1013.0 0.2
27/07:00pm 15.4 9.6 9.5 68 3.0 W 30 41 16 22 1012.8 1012.8 0.2
27/06:30pm 15.4 9.6 6.4 55 4.4 W 26 37 14 20 1012.4 1012.4 0.2

Other Formats:

Comma delimited format used in spreadsheet applications
http://www.bom.gov.au/fwo/IDW60801/IDW60801.94605.axf

JavaScript Object Notation format (JSON) in row-major order
http://www.bom.gov.au/fwo/IDW60801/IDW60801.94605.json